sensor_id;sensor_type;location;lat;lon;timestamp;P1;durP1;ratioP1;P2;durP2;ratioP2
27925;SDS011;15267;47.838;12.128;2022-10-18T00:01:12;8.98;;;3.90;;
27925;SDS011;15267;47.838;12.128;2022-10-18T00:03:38;9.05;;;3.85;;
27925;SDS011;15267;47.838;12.128;2022-10-18T00:06:05;6.55;;;4.28;;
27925;SDS011;15267;47.838;12.128;2022-10-18T00:08:33;8.32;;;4.05;;
27925;SDS011;15267;47.838;12.128;2022-10-18T00:10:59;6.75;;;4.20;;
27925;SDS011;15267;47.838;12.128;2022-10-18T00:13:25;8.95;;;4.20;;
27925;SDS011;15267;47.838;12.128;2022-10-18T00:15:51;10.27;;;4.35;;
27925;SDS011;15267;47.838;12.128;2022-10-18T00:18:18;9.05;;;4.07;;
27925;SDS011;15267;47.838;12.128;2022-10-18T00:20:44;12.02;;;4.55;;
27925;SDS011;15267;47.838;12.128;2022-10-18T00:23:10;10.50;;;4.25;;
27925;SDS011;15267;47.838;12.128;2022-10-18T00:25:36;9.57;;;4.15;;
27925;SDS011;15267;47.838;12.128;2022-10-18T00:28:02;9.27;;;4.22;;
27925;SDS011;15267;47.838;12.128;2022-10-18T00:30:28;10.90;;;4.70;;
27925;SDS011;15267;47.838;12.128;2022-10-18T00:32:54;7.05;;;3.92;;
27925;SDS011;15267;47.838;12.128;2022-10-18T00:35:20;10.77;;;4.28;;
27925;SDS011;15267;47.838;12.128;2022-10-18T00:37:46;9.02;;;4.15;;
27925;SDS011;15267;47.838;12.128;2022-10-18T00:40:12;9.23;;;4.57;;
27925;SDS011;15267;47.838;12.128;2022-10-18T00:42:38;7.72;;;4.25;;
27925;SDS011;15267;47.838;12.128;2022-10-18T00:47:30;7.22;;;3.92;;
27925;SDS011;15267;47.838;12.128;2022-10-18T00:49:57;9.75;;;4.20;;
27925;SDS011;15267;47.838;12.128;2022-10-18T00:52:28;6.40;;;4.25;;
27925;SDS011;15267;47.838;12.128;2022-10-18T00:54:55;5.82;;;3.90;;
27925;SDS011;15267;47.838;12.128;2022-10-18T00:57:22;5.13;;;4.00;;
27925;SDS011;15267;47.838;12.128;2022-10-18T00:59:49;8.43;;;3.95;;
27925;SDS011;15267;47.838;12.128;2022-10-18T01:02:15;7.55;;;4.50;;
27925;SDS011;15267;47.838;12.128;2022-10-18T01:04:42;7.47;;;4.18;;
27925;SDS011;15267;47.838;12.128;2022-10-18T01:18:08;9.30;;;4.13;;
27925;SDS011;15267;47.838;12.128;2022-10-18T01:20:54;11.52;;;4.15;;
27925;SDS011;15267;47.838;12.128;2022-10-18T01:26:12;6.20;;;4.70;;
27925;SDS011;15267;47.838;12.128;2022-10-18T01:28:46;6.75;;;4.18;;
27925;SDS011;15267;47.838;12.128;2022-10-18T01:31:14;8.80;;;4.40;;
27925;SDS011;15267;47.838;12.128;2022-10-18T01:33:47;9.70;;;4.82;;
27925;SDS011;15267;47.838;12.128;2022-10-18T01:36:19;11.05;;;4.38;;
27925;SDS011;15267;47.838;12.128;2022-10-18T01:38:46;11.40;;;4.63;;
27925;SDS011;15267;47.838;12.128;2022-10-18T01:41:13;6.32;;;4.40;;
27925;SDS011;15267;47.838;12.128;2022-10-18T01:43:40;7.60;;;4.40;;
27925;SDS011;15267;47.838;12.128;2022-10-18T01:46:07;7.88;;;4.35;;
27925;SDS011;15267;47.838;12.128;2022-10-18T01:48:33;7.65;;;4.13;;
27925;SDS011;15267;47.838;12.128;2022-10-18T01:51:02;7.72;;;4.50;;
27925;SDS011;15267;47.838;12.128;2022-10-18T01:53:29;7.70;;;4.63;;
27925;SDS011;15267;47.838;12.128;2022-10-18T02:04:05;10.50;;;4.50;;
27925;SDS011;15267;47.838;12.128;2022-10-18T02:06:34;10.52;;;4.57;;
27925;SDS011;15267;47.838;12.128;2022-10-18T02:11:56;6.85;;;4.45;;
27925;SDS011;15267;47.838;12.128;2022-10-18T02:14:22;10.68;;;4.00;;
27925;SDS011;15267;47.838;12.128;2022-10-18T02:16:51;9.20;;;4.28;;
27925;SDS011;15267;47.838;12.128;2022-10-18T02:19:31;6.55;;;4.07;;
27925;SDS011;15267;47.838;12.128;2022-10-18T02:21:58;7.50;;;4.15;;
27925;SDS011;15267;47.838;12.128;2022-10-18T02:24:26;8.02;;;4.32;;
27925;SDS011;15267;47.838;12.128;2022-10-18T02:26:55;9.50;;;4.90;;
27925;SDS011;15267;47.838;12.128;2022-10-18T02:29:21;9.77;;;4.90;;
27925;SDS011;15267;47.838;12.128;2022-10-18T02:31:47;8.93;;;4.50;;
27925;SDS011;15267;47.838;12.128;2022-10-18T02:34:21;7.63;;;4.75;;
27925;SDS011;15267;47.838;12.128;2022-10-18T02:36:51;8.68;;;4.40;;
27925;SDS011;15267;47.838;12.128;2022-10-18T02:39:21;5.90;;;4.13;;
27925;SDS011;15267;47.838;12.128;2022-10-18T02:41:47;9.02;;;4.25;;
27925;SDS011;15267;47.838;12.128;2022-10-18T02:44:13;9.88;;;4.53;;
27925;SDS011;15267;47.838;12.128;2022-10-18T02:46:39;7.30;;;4.20;;
27925;SDS011;15267;47.838;12.128;2022-10-18T02:49:06;9.73;;;4.35;;
27925;SDS011;15267;47.838;12.128;2022-10-18T02:51:32;8.95;;;4.40;;
27925;SDS011;15267;47.838;12.128;2022-10-18T02:53:58;8.32;;;4.32;;
27925;SDS011;15267;47.838;12.128;2022-10-18T02:56:24;9.68;;;4.50;;
27925;SDS011;15267;47.838;12.128;2022-10-18T02:58:49;7.53;;;3.63;;
27925;SDS011;15267;47.838;12.128;2022-10-18T03:01:15;5.50;;;4.28;;
27925;SDS011;15267;47.838;12.128;2022-10-18T03:03:41;6.03;;;3.28;;
27925;SDS011;15267;47.838;12.128;2022-10-18T03:06:07;9.05;;;3.75;;
27925;SDS011;15267;47.838;12.128;2022-10-18T03:08:34;5.28;;;3.50;;
27925;SDS011;15267;47.838;12.128;2022-10-18T03:11:00;8.48;;;3.97;;
27925;SDS011;15267;47.838;12.128;2022-10-18T03:13:26;8.93;;;3.70;;
27925;SDS011;15267;47.838;12.128;2022-10-18T03:15:52;7.45;;;4.63;;
27925;SDS011;15267;47.838;12.128;2022-10-18T03:18:18;7.10;;;3.92;;
27925;SDS011;15267;47.838;12.128;2022-10-18T03:20:44;10.55;;;3.90;;
27925;SDS011;15267;47.838;12.128;2022-10-18T03:23:10;7.22;;;4.18;;
27925;SDS011;15267;47.838;12.128;2022-10-18T03:25:36;6.88;;;3.40;;
27925;SDS011;15267;47.838;12.128;2022-10-18T03:28:02;4.63;;;3.40;;
27925;SDS011;15267;47.838;12.128;2022-10-18T03:30:28;8.82;;;3.78;;
27925;SDS011;15267;47.838;12.128;2022-10-18T03:32:54;9.38;;;4.00;;
27925;SDS011;15267;47.838;12.128;2022-10-18T03:35:20;6.63;;;4.18;;
27925;SDS011;15267;47.838;12.128;2022-10-18T03:37:46;5.40;;;4.13;;
27925;SDS011;15267;47.838;12.128;2022-10-18T03:40:13;8.75;;;3.80;;
27925;SDS011;15267;47.838;12.128;2022-10-18T03:42:39;12.70;;;4.60;;
27925;SDS011;15267;47.838;12.128;2022-10-18T03:45:05;8.05;;;4.65;;
27925;SDS011;15267;47.838;12.128;2022-10-18T03:47:31;9.77;;;4.80;;
27925;SDS011;15267;47.838;12.128;2022-10-18T03:49:57;5.32;;;3.72;;
27925;SDS011;15267;47.838;12.128;2022-10-18T03:52:23;10.45;;;4.00;;
27925;SDS011;15267;47.838;12.128;2022-10-18T03:54:49;6.40;;;4.25;;
27925;SDS011;15267;47.838;12.128;2022-10-18T03:57:15;7.03;;;4.20;;
27925;SDS011;15267;47.838;12.128;2022-10-18T03:59:40;11.82;;;7.85;;
27925;SDS011;15267;47.838;12.128;2022-10-18T04:02:07;8.93;;;6.63;;
27925;SDS011;15267;47.838;12.128;2022-10-18T04:04:33;9.13;;;5.90;;
27925;SDS011;15267;47.838;12.128;2022-10-18T04:06:59;10.38;;;5.38;;
27925;SDS011;15267;47.838;12.128;2022-10-18T04:09:25;9.70;;;4.55;;
27925;SDS011;15267;47.838;12.128;2022-10-18T04:11:51;7.93;;;4.10;;
27925;SDS011;15267;47.838;12.128;2022-10-18T04:14:17;7.68;;;3.78;;
27925;SDS011;15267;47.838;12.128;2022-10-18T04:16:45;7.22;;;4.03;;
27925;SDS011;15267;47.838;12.128;2022-10-18T04:19:11;7.43;;;4.07;;
27925;SDS011;15267;47.838;12.128;2022-10-18T04:21:37;7.80;;;3.88;;
27925;SDS011;15267;47.838;12.128;2022-10-18T04:24:04;10.07;;;4.28;;
27925;SDS011;15267;47.838;12.128;2022-10-18T04:26:30;9.77;;;4.20;;
27925;SDS011;15267;47.838;12.128;2022-10-18T04:28:56;14.43;;;4.20;;
27925;SDS011;15267;47.838;12.128;2022-10-18T04:31:22;8.57;;;4.25;;
27925;SDS011;15267;47.838;12.128;2022-10-18T04:33:48;9.73;;;4.35;;
27925;SDS011;15267;47.838;12.128;2022-10-18T04:36:14;10.45;;;4.10;;
27925;SDS011;15267;47.838;12.128;2022-10-18T04:38:39;9.70;;;5.10;;
27925;SDS011;15267;47.838;12.128;2022-10-18T04:41:05;12.25;;;4.63;;
27925;SDS011;15267;47.838;12.128;2022-10-18T04:43:31;13.82;;;5.00;;
27925;SDS011;15267;47.838;12.128;2022-10-18T04:45:57;10.38;;;4.38;;
27925;SDS011;15267;47.838;12.128;2022-10-18T04:48:24;10.35;;;4.53;;
27925;SDS011;15267;47.838;12.128;2022-10-18T04:50:50;11.77;;;4.88;;
27925;SDS011;15267;47.838;12.128;2022-10-18T04:53:16;9.50;;;5.03;;
27925;SDS011;15267;47.838;12.128;2022-10-18T04:55:51;13.18;;;5.05;;
27925;SDS011;15267;47.838;12.128;2022-10-18T04:58:17;10.50;;;4.85;;
27925;SDS011;15267;47.838;12.128;2022-10-18T05:00:44;9.68;;;4.93;;
27925;SDS011;15267;47.838;12.128;2022-10-18T05:03:11;9.02;;;4.45;;
27925;SDS011;15267;47.838;12.128;2022-10-18T05:05:38;7.75;;;4.88;;
27925;SDS011;15267;47.838;12.128;2022-10-18T05:08:04;10.27;;;4.90;;
27925;SDS011;15267;47.838;12.128;2022-10-18T05:10:30;13.35;;;5.78;;
27925;SDS011;15267;47.838;12.128;2022-10-18T05:12:56;14.55;;;5.25;;
27925;SDS011;15267;47.838;12.128;2022-10-18T05:15:22;7.72;;;4.60;;
27925;SDS011;15267;47.838;12.128;2022-10-18T05:17:48;8.98;;;5.28;;
27925;SDS011;15267;47.838;12.128;2022-10-18T05:20:14;10.60;;;4.82;;
27925;SDS011;15267;47.838;12.128;2022-10-18T05:22:40;9.50;;;4.80;;
27925;SDS011;15267;47.838;12.128;2022-10-18T05:25:06;7.82;;;4.60;;
27925;SDS011;15267;47.838;12.128;2022-10-18T05:27:32;16.65;;;4.90;;
27925;SDS011;15267;47.838;12.128;2022-10-18T05:29:58;7.00;;;4.80;;
27925;SDS011;15267;47.838;12.128;2022-10-18T05:32:24;13.20;;;5.10;;
27925;SDS011;15267;47.838;12.128;2022-10-18T05:34:50;10.73;;;4.95;;
27925;SDS011;15267;47.838;12.128;2022-10-18T05:37:16;7.80;;;4.63;;
27925;SDS011;15267;47.838;12.128;2022-10-18T05:39:42;8.43;;;5.20;;
27925;SDS011;15267;47.838;12.128;2022-10-18T05:42:09;9.07;;;4.85;;
27925;SDS011;15267;47.838;12.128;2022-10-18T05:44:34;7.13;;;4.47;;
27925;SDS011;15267;47.838;12.128;2022-10-18T05:47:00;7.90;;;4.10;;
27925;SDS011;15267;47.838;12.128;2022-10-18T05:49:26;8.30;;;4.25;;
27925;SDS011;15267;47.838;12.128;2022-10-18T05:51:52;9.32;;;4.05;;
27925;SDS011;15267;47.838;12.128;2022-10-18T05:54:18;13.23;;;3.97;;
27925;SDS011;15267;47.838;12.128;2022-10-18T05:56:45;8.98;;;4.15;;
27925;SDS011;15267;47.838;12.128;2022-10-18T05:59:11;8.32;;;4.03;;
27925;SDS011;15267;47.838;12.128;2022-10-18T06:01:37;7.68;;;3.80;;
27925;SDS011;15267;47.838;12.128;2022-10-18T06:04:03;7.15;;;3.70;;
27925;SDS011;15267;47.838;12.128;2022-10-18T06:06:29;6.50;;;3.60;;
27925;SDS011;15267;47.838;12.128;2022-10-18T06:08:56;8.15;;;3.65;;
27925;SDS011;15267;47.838;12.128;2022-10-18T06:11:22;9.27;;;4.13;;
27925;SDS011;15267;47.838;12.128;2022-10-18T06:13:48;9.35;;;4.50;;
27925;SDS011;15267;47.838;12.128;2022-10-18T06:16:16;8.75;;;3.97;;
27925;SDS011;15267;47.838;12.128;2022-10-18T06:18:45;9.10;;;4.75;;
27925;SDS011;15267;47.838;12.128;2022-10-18T06:21:12;11.57;;;4.38;;
27925;SDS011;15267;47.838;12.128;2022-10-18T06:23:38;6.18;;;3.53;;
27925;SDS011;15267;47.838;12.128;2022-10-18T06:26:05;6.60;;;3.33;;
27925;SDS011;15267;47.838;12.128;2022-10-18T06:28:32;7.93;;;4.00;;
27925;SDS011;15267;47.838;12.128;2022-10-18T06:30:59;9.55;;;4.20;;
27925;SDS011;15267;47.838;12.128;2022-10-18T06:33:24;12.00;;;4.30;;
27925;SDS011;15267;47.838;12.128;2022-10-18T06:35:58;8.45;;;4.28;;
27925;SDS011;15267;47.838;12.128;2022-10-18T06:38:24;10.65;;;4.25;;
27925;SDS011;15267;47.838;12.128;2022-10-18T06:40:50;8.25;;;4.15;;
27925;SDS011;15267;47.838;12.128;2022-10-18T06:43:16;6.20;;;3.85;;
27925;SDS011;15267;47.838;12.128;2022-10-18T06:45:42;9.68;;;3.70;;
27925;SDS011;15267;47.838;12.128;2022-10-18T06:48:08;7.93;;;4.10;;
27925;SDS011;15267;47.838;12.128;2022-10-18T06:50:34;5.72;;;4.10;;
27925;SDS011;15267;47.838;12.128;2022-10-18T06:53:00;7.22;;;4.10;;
27925;SDS011;15267;47.838;12.128;2022-10-18T06:55:28;8.18;;;4.00;;
27925;SDS011;15267;47.838;12.128;2022-10-18T06:57:55;6.70;;;4.20;;
27925;SDS011;15267;47.838;12.128;2022-10-18T07:00:21;6.25;;;3.80;;
27925;SDS011;15267;47.838;12.128;2022-10-18T07:02:47;8.93;;;4.10;;
27925;SDS011;15267;47.838;12.128;2022-10-18T07:05:12;9.95;;;4.40;;
27925;SDS011;15267;47.838;12.128;2022-10-18T07:07:38;8.73;;;4.30;;
27925;SDS011;15267;47.838;12.128;2022-10-18T07:10:05;5.05;;;3.50;;
27925;SDS011;15267;47.838;12.128;2022-10-18T07:12:31;5.60;;;3.78;;
27925;SDS011;15267;47.838;12.128;2022-10-18T07:14:57;7.38;;;3.90;;
27925;SDS011;15267;47.838;12.128;2022-10-18T07:17:23;5.25;;;3.20;;
27925;SDS011;15267;47.838;12.128;2022-10-18T07:19:49;6.70;;;3.70;;
27925;SDS011;15267;47.838;12.128;2022-10-18T07:22:16;7.03;;;3.65;;
27925;SDS011;15267;47.838;12.128;2022-10-18T07:24:41;9.43;;;3.60;;
27925;SDS011;15267;47.838;12.128;2022-10-18T07:27:07;8.38;;;3.65;;
27925;SDS011;15267;47.838;12.128;2022-10-18T07:29:33;7.93;;;3.50;;
27925;SDS011;15267;47.838;12.128;2022-10-18T07:32:02;7.72;;;3.53;;
27925;SDS011;15267;47.838;12.128;2022-10-18T07:34:28;9.48;;;3.47;;
27925;SDS011;15267;47.838;12.128;2022-10-18T07:36:54;5.55;;;3.30;;
27925;SDS011;15267;47.838;12.128;2022-10-18T07:39:20;4.70;;;3.55;;
27925;SDS011;15267;47.838;12.128;2022-10-18T07:41:46;4.00;;;3.13;;
27925;SDS011;15267;47.838;12.128;2022-10-18T07:44:13;6.40;;;3.65;;
27925;SDS011;15267;47.838;12.128;2022-10-18T07:46:39;8.60;;;3.53;;
27925;SDS011;15267;47.838;12.128;2022-10-18T07:49:05;12.60;;;3.72;;
27925;SDS011;15267;47.838;12.128;2022-10-18T07:51:31;5.97;;;3.85;;
27925;SDS011;15267;47.838;12.128;2022-10-18T07:53:58;7.15;;;3.70;;
27925;SDS011;15267;47.838;12.128;2022-10-18T07:56:24;6.32;;;3.78;;
27925;SDS011;15267;47.838;12.128;2022-10-18T07:58:51;4.95;;;3.10;;
27925;SDS011;15267;47.838;12.128;2022-10-18T08:01:17;6.93;;;3.75;;
27925;SDS011;15267;47.838;12.128;2022-10-18T08:03:44;9.45;;;3.55;;
27925;SDS011;15267;47.838;12.128;2022-10-18T08:06:10;5.50;;;3.75;;
27925;SDS011;15267;47.838;12.128;2022-10-18T08:08:37;7.05;;;3.85;;
27925;SDS011;15267;47.838;12.128;2022-10-18T08:11:04;6.28;;;3.45;;
27925;SDS011;15267;47.838;12.128;2022-10-18T08:13:31;9.05;;;4.13;;
27925;SDS011;15267;47.838;12.128;2022-10-18T08:16:01;10.30;;;3.83;;
27925;SDS011;15267;47.838;12.128;2022-10-18T08:18:27;7.15;;;3.58;;
27925;SDS011;15267;47.838;12.128;2022-10-18T08:20:53;8.27;;;3.40;;
27925;SDS011;15267;47.838;12.128;2022-10-18T08:23:19;6.25;;;3.60;;
27925;SDS011;15267;47.838;12.128;2022-10-18T08:25:45;7.13;;;3.67;;
27925;SDS011;15267;47.838;12.128;2022-10-18T08:28:11;4.50;;;3.30;;
27925;SDS011;15267;47.838;12.128;2022-10-18T08:30:38;5.03;;;2.97;;
27925;SDS011;15267;47.838;12.128;2022-10-18T08:33:04;5.15;;;3.53;;
27925;SDS011;15267;47.838;12.128;2022-10-18T08:35:30;5.43;;;3.20;;
27925;SDS011;15267;47.838;12.128;2022-10-18T08:37:56;7.45;;;3.40;;
27925;SDS011;15267;47.838;12.128;2022-10-18T08:40:23;3.78;;;3.15;;
27925;SDS011;15267;47.838;12.128;2022-10-18T08:42:58;7.35;;;3.28;;
27925;SDS011;15267;47.838;12.128;2022-10-18T08:45:25;8.20;;;3.85;;
27925;SDS011;15267;47.838;12.128;2022-10-18T08:47:52;5.07;;;3.10;;
27925;SDS011;15267;47.838;12.128;2022-10-18T08:50:32;5.00;;;2.97;;
27925;SDS011;15267;47.838;12.128;2022-10-18T08:55:45;8.60;;;3.50;;
27925;SDS011;15267;47.838;12.128;2022-10-18T08:58:18;4.72;;;3.22;;
27925;SDS011;15267;47.838;12.128;2022-10-18T09:03:37;4.47;;;3.28;;
27925;SDS011;15267;47.838;12.128;2022-10-18T09:06:30;6.20;;;3.30;;
27925;SDS011;15267;47.838;12.128;2022-10-18T09:11:26;6.05;;;3.08;;
27925;SDS011;15267;47.838;12.128;2022-10-18T09:21:52;6.57;;;3.40;;
27925;SDS011;15267;47.838;12.128;2022-10-18T09:24:26;3.20;;;2.90;;
27925;SDS011;15267;47.838;12.128;2022-10-18T09:26:59;6.15;;;3.30;;
27925;SDS011;15267;47.838;12.128;2022-10-18T09:37:13;7.55;;;3.28;;
27925;SDS011;15267;47.838;12.128;2022-10-18T09:39:40;4.50;;;2.88;;
27925;SDS011;15267;47.838;12.128;2022-10-18T09:44:59;7.68;;;3.22;;
27925;SDS011;15267;47.838;12.128;2022-10-18T09:50:00;5.57;;;3.17;;
27925;SDS011;15267;47.838;12.128;2022-10-18T09:52:28;4.90;;;3.20;;
27925;SDS011;15267;47.838;12.128;2022-10-18T09:54:57;6.70;;;3.20;;
27925;SDS011;15267;47.838;12.128;2022-10-18T09:57:33;6.15;;;3.13;;
27925;SDS011;15267;47.838;12.128;2022-10-18T10:00:00;7.55;;;3.05;;
27925;SDS011;15267;47.838;12.128;2022-10-18T10:02:27;7.30;;;3.22;;
27925;SDS011;15267;47.838;12.128;2022-10-18T10:04:53;8.77;;;3.83;;
27925;SDS011;15267;47.838;12.128;2022-10-18T10:07:23;7.40;;;3.17;;
27925;SDS011;15267;47.838;12.128;2022-10-18T10:09:57;6.53;;;3.13;;
27925;SDS011;15267;47.838;12.128;2022-10-18T10:14:50;7.55;;;3.00;;
27925;SDS011;15267;47.838;12.128;2022-10-18T10:17:23;5.90;;;3.50;;
27925;SDS011;15267;47.838;12.128;2022-10-18T10:19:55;4.22;;;3.20;;
27925;SDS011;15267;47.838;12.128;2022-10-18T10:22:25;6.53;;;3.17;;
27925;SDS011;15267;47.838;12.128;2022-10-18T10:24:53;6.55;;;3.10;;
27925;SDS011;15267;47.838;12.128;2022-10-18T10:27:38;5.82;;;3.20;;
27925;SDS011;15267;47.838;12.128;2022-10-18T10:30:22;5.57;;;3.10;;
27925;SDS011;15267;47.838;12.128;2022-10-18T10:32:49;9.63;;;3.10;;
27925;SDS011;15267;47.838;12.128;2022-10-18T10:35:35;7.65;;;3.08;;
27925;SDS011;15267;47.838;12.128;2022-10-18T10:38:02;9.38;;;3.20;;
27925;SDS011;15267;47.838;12.128;2022-10-18T10:40:29;6.03;;;3.03;;
27925;SDS011;15267;47.838;12.128;2022-10-18T10:45:28;5.45;;;3.13;;
27925;SDS011;15267;47.838;12.128;2022-10-18T10:48:00;4.82;;;3.42;;
27925;SDS011;15267;47.838;12.128;2022-10-18T10:50:27;7.05;;;3.10;;
27925;SDS011;15267;47.838;12.128;2022-10-18T10:52:54;6.78;;;3.20;;
27925;SDS011;15267;47.838;12.128;2022-10-18T10:55:28;8.13;;;3.40;;
27925;SDS011;15267;47.838;12.128;2022-10-18T10:57:57;5.68;;;3.20;;
27925;SDS011;15267;47.838;12.128;2022-10-18T11:00:34;6.45;;;3.17;;
27925;SDS011;15267;47.838;12.128;2022-10-18T11:03:04;8.55;;;3.00;;
27925;SDS011;15267;47.838;12.128;2022-10-18T11:05:30;6.57;;;2.78;;
27925;SDS011;15267;47.838;12.128;2022-10-18T11:08:07;6.40;;;3.50;;
27925;SDS011;15267;47.838;12.128;2022-10-18T11:10:44;8.98;;;3.15;;
27925;SDS011;15267;47.838;12.128;2022-10-18T11:13:27;3.97;;;3.35;;
27925;SDS011;15267;47.838;12.128;2022-10-18T11:15:59;5.82;;;3.00;;
27925;SDS011;15267;47.838;12.128;2022-10-18T11:18:32;6.60;;;3.50;;
27925;SDS011;15267;47.838;12.128;2022-10-18T11:23:26;7.82;;;3.65;;
27925;SDS011;15267;47.838;12.128;2022-10-18T11:25:59;5.82;;;3.25;;
27925;SDS011;15267;47.838;12.128;2022-10-18T11:36:17;5.40;;;3.10;;
27925;SDS011;15267;47.838;12.128;2022-10-18T11:38:55;7.70;;;3.05;;
27925;SDS011;15267;47.838;12.128;2022-10-18T11:54:24;4.40;;;2.90;;
27925;SDS011;15267;47.838;12.128;2022-10-18T11:56:58;6.38;;;2.90;;
27925;SDS011;15267;47.838;12.128;2022-10-18T12:04:57;4.57;;;2.70;;
27925;SDS011;15267;47.838;12.128;2022-10-18T12:07:24;7.80;;;2.72;;
27925;SDS011;15267;47.838;12.128;2022-10-18T12:09:55;6.35;;;2.70;;
27925;SDS011;15267;47.838;12.128;2022-10-18T12:14:55;10.02;;;3.45;;
27925;SDS011;15267;47.838;12.128;2022-10-18T12:20:05;5.45;;;2.75;;
27925;SDS011;15267;47.838;12.128;2022-10-18T12:22:39;7.80;;;3.03;;
27925;SDS011;15267;47.838;12.128;2022-10-18T12:25:13;7.28;;;2.95;;
27925;SDS011;15267;47.838;12.128;2022-10-18T12:27:40;7.55;;;3.00;;
27925;SDS011;15267;47.838;12.128;2022-10-18T12:30:52;7.70;;;3.20;;
27925;SDS011;15267;47.838;12.128;2022-10-18T12:33:02;4.18;;;2.88;;
27925;SDS011;15267;47.838;12.128;2022-10-18T12:35:29;6.70;;;2.85;;
27925;SDS011;15267;47.838;12.128;2022-10-18T12:42:58;7.82;;;2.72;;
27925;SDS011;15267;47.838;12.128;2022-10-18T12:45:31;6.75;;;2.90;;
27925;SDS011;15267;47.838;12.128;2022-10-18T12:48:05;6.00;;;2.90;;
27925;SDS011;15267;47.838;12.128;2022-10-18T12:50:35;3.53;;;2.50;;
27925;SDS011;15267;47.838;12.128;2022-10-18T12:55:37;7.90;;;2.78;;
27925;SDS011;15267;47.838;12.128;2022-10-18T12:58:20;5.45;;;2.50;;
27925;SDS011;15267;47.838;12.128;2022-10-18T13:16:06;4.70;;;2.20;;
27925;SDS011;15267;47.838;12.128;2022-10-18T13:18:54;7.20;;;2.80;;
27925;SDS011;15267;47.838;12.128;2022-10-18T13:21:21;3.63;;;2.60;;
27925;SDS011;15267;47.838;12.128;2022-10-18T13:31:28;7.50;;;2.63;;
27925;SDS011;15267;47.838;12.128;2022-10-18T13:36:53;4.95;;;2.70;;
27925;SDS011;15267;47.838;12.128;2022-10-18T13:39:19;6.85;;;2.75;;
27925;SDS011;15267;47.838;12.128;2022-10-18T13:44:22;5.40;;;2.47;;
27925;SDS011;15267;47.838;12.128;2022-10-18T14:00:17;5.45;;;2.45;;
27925;SDS011;15267;47.838;12.128;2022-10-18T14:07:49;8.55;;;2.65;;
27925;SDS011;15267;47.838;12.128;2022-10-18T14:10:23;6.07;;;2.45;;
27925;SDS011;15267;47.838;12.128;2022-10-18T14:12:51;7.13;;;2.35;;
27925;SDS011;15267;47.838;12.128;2022-10-18T14:15:22;5.88;;;2.60;;
27925;SDS011;15267;47.838;12.128;2022-10-18T14:17:50;5.72;;;2.25;;
27925;SDS011;15267;47.838;12.128;2022-10-18T14:20:27;5.85;;;2.40;;
27925;SDS011;15267;47.838;12.128;2022-10-18T14:25:31;5.82;;;2.40;;
27925;SDS011;15267;47.838;12.128;2022-10-18T14:28:03;5.20;;;2.53;;
27925;SDS011;15267;47.838;12.128;2022-10-18T14:30:29;7.45;;;2.60;;
27925;SDS011;15267;47.838;12.128;2022-10-18T14:32:55;5.13;;;2.80;;
27925;SDS011;15267;47.838;12.128;2022-10-18T14:35:24;4.60;;;2.38;;
27925;SDS011;15267;47.838;12.128;2022-10-18T14:37:51;7.13;;;2.35;;
27925;SDS011;15267;47.838;12.128;2022-10-18T14:42:50;5.57;;;2.13;;
27925;SDS011;15267;47.838;12.128;2022-10-18T14:45:19;8.75;;;2.65;;
27925;SDS011;15267;47.838;12.128;2022-10-18T14:47:45;6.45;;;2.28;;
27925;SDS011;15267;47.838;12.128;2022-10-18T14:50:22;6.60;;;2.40;;
27925;SDS011;15267;47.838;12.128;2022-10-18T14:52:48;7.22;;;2.33;;
27925;SDS011;15267;47.838;12.128;2022-10-18T14:55:16;5.90;;;2.53;;
27925;SDS011;15267;47.838;12.128;2022-10-18T14:57:43;6.88;;;2.28;;
27925;SDS011;15267;47.838;12.128;2022-10-18T15:00:28;4.20;;;2.30;;
27925;SDS011;15267;47.838;12.128;2022-10-18T15:02:55;5.15;;;2.65;;
27925;SDS011;15267;47.838;12.128;2022-10-18T15:05:22;8.85;;;2.38;;
27925;SDS011;15267;47.838;12.128;2022-10-18T15:07:48;6.57;;;2.15;;
27925;SDS011;15267;47.838;12.128;2022-10-18T15:10:26;3.78;;;2.45;;
27925;SDS011;15267;47.838;12.128;2022-10-18T15:12:53;8.02;;;2.53;;
27925;SDS011;15267;47.838;12.128;2022-10-18T15:15:25;8.90;;;2.47;;
27925;SDS011;15267;47.838;12.128;2022-10-18T15:17:52;8.05;;;2.67;;
27925;SDS011;15267;47.838;12.128;2022-10-18T15:20:20;8.63;;;2.58;;
27925;SDS011;15267;47.838;12.128;2022-10-18T15:22:46;6.10;;;2.50;;
27925;SDS011;15267;47.838;12.128;2022-10-18T15:27:52;18.23;;;3.05;;
27925;SDS011;15267;47.838;12.128;2022-10-18T15:30:28;10.82;;;3.25;;
27925;SDS011;15267;47.838;12.128;2022-10-18T15:32:55;9.95;;;3.30;;
27925;SDS011;15267;47.838;12.128;2022-10-18T15:37:50;10.45;;;3.42;;
27925;SDS011;15267;47.838;12.128;2022-10-18T15:40:18;8.45;;;3.20;;
27925;SDS011;15267;47.838;12.128;2022-10-18T15:42:54;8.60;;;3.50;;
27925;SDS011;15267;47.838;12.128;2022-10-18T15:48:00;10.18;;;3.58;;
27925;SDS011;15267;47.838;12.128;2022-10-18T15:50:42;12.88;;;5.10;;
27925;SDS011;15267;47.838;12.128;2022-10-18T15:55:56;10.93;;;4.65;;
27925;SDS011;15267;47.838;12.128;2022-10-18T15:58:24;8.65;;;4.10;;
27925;SDS011;15267;47.838;12.128;2022-10-18T16:00:51;11.20;;;4.88;;
27925;SDS011;15267;47.838;12.128;2022-10-18T16:03:18;10.85;;;5.13;;
27925;SDS011;15267;47.838;12.128;2022-10-18T16:05:46;6.82;;;3.65;;
27925;SDS011;15267;47.838;12.128;2022-10-18T16:08:20;11.90;;;4.38;;
27925;SDS011;15267;47.838;12.128;2022-10-18T16:13:12;13.80;;;5.07;;
27925;SDS011;15267;47.838;12.128;2022-10-18T16:15:38;9.93;;;4.20;;
27925;SDS011;15267;47.838;12.128;2022-10-18T16:18:04;10.15;;;4.20;;
27925;SDS011;15267;47.838;12.128;2022-10-18T16:20:29;11.18;;;3.90;;
27925;SDS011;15267;47.838;12.128;2022-10-18T16:22:55;6.97;;;3.60;;
27925;SDS011;15267;47.838;12.128;2022-10-18T16:25:21;11.20;;;3.53;;
27925;SDS011;15267;47.838;12.128;2022-10-18T16:27:47;11.02;;;3.42;;
27925;SDS011;15267;47.838;12.128;2022-10-18T16:30:14;10.18;;;3.75;;
27925;SDS011;15267;47.838;12.128;2022-10-18T16:32:41;11.38;;;3.17;;
27925;SDS011;15267;47.838;12.128;2022-10-18T16:35:07;6.10;;;3.33;;
27925;SDS011;15267;47.838;12.128;2022-10-18T16:37:34;7.45;;;3.00;;
27925;SDS011;15267;47.838;12.128;2022-10-18T16:40:08;7.07;;;2.92;;
27925;SDS011;15267;47.838;12.128;2022-10-18T16:42:38;9.40;;;2.50;;
27925;SDS011;15267;47.838;12.128;2022-10-18T16:45:04;8.65;;;2.78;;
27925;SDS011;15267;47.838;12.128;2022-10-18T16:47:30;8.60;;;2.95;;
27925;SDS011;15267;47.838;12.128;2022-10-18T16:49:56;10.68;;;3.28;;
27925;SDS011;15267;47.838;12.128;2022-10-18T16:52:23;9.18;;;2.65;;
27925;SDS011;15267;47.838;12.128;2022-10-18T16:54:49;9.10;;;2.60;;
27925;SDS011;15267;47.838;12.128;2022-10-18T16:57:15;12.07;;;2.83;;
27925;SDS011;15267;47.838;12.128;2022-10-18T16:59:41;7.22;;;2.38;;
27925;SDS011;15267;47.838;12.128;2022-10-18T17:02:07;7.57;;;2.47;;
27925;SDS011;15267;47.838;12.128;2022-10-18T17:04:35;9.13;;;2.42;;
27925;SDS011;15267;47.838;12.128;2022-10-18T17:07:01;8.65;;;2.10;;
27925;SDS011;15267;47.838;12.128;2022-10-18T17:09:28;9.02;;;2.20;;
27925;SDS011;15267;47.838;12.128;2022-10-18T17:11:54;10.25;;;2.45;;
27925;SDS011;15267;47.838;12.128;2022-10-18T17:14:20;7.78;;;2.85;;
27925;SDS011;15267;47.838;12.128;2022-10-18T17:16:46;5.55;;;2.65;;
27925;SDS011;15267;47.838;12.128;2022-10-18T17:19:12;9.57;;;2.88;;
27925;SDS011;15267;47.838;12.128;2022-10-18T17:21:38;10.75;;;2.95;;
27925;SDS011;15267;47.838;12.128;2022-10-18T17:24:04;10.40;;;2.30;;
27925;SDS011;15267;47.838;12.128;2022-10-18T17:26:31;7.13;;;2.30;;